sensor_id;sensor_type;location;lat;lon;timestamp;pressure;altitude;pressure_sealevel;temperature;humidity
50356;BME280;36264;51.296;-0.602;2023-03-04T00:01:00;102788.09;;;8.08;92.84
50356;BME280;36264;51.296;-0.602;2023-03-04T00:03:25;102784.66;;;8.09;92.87
50356;BME280;36264;51.296;-0.602;2023-03-04T00:05:50;102784.69;;;8.11;92.72
50356;BME280;36264;51.296;-0.602;2023-03-04T00:08:16;102787.25;;;8.11;92.40
50356;BME280;36264;51.296;-0.602;2023-03-04T00:10:42;102783.84;;;8.15;92.65
50356;BME280;36264;51.296;-0.602;2023-03-04T00:13:08;102780.34;;;8.10;92.76
50356;BME280;36264;51.296;-0.602;2023-03-04T00:15:33;102772.50;;;8.04;92.51
50356;BME280;36264;51.296;-0.602;2023-03-04T00:17:58;102780.28;;;8.05;92.95
50356;BME280;36264;51.296;-0.602;2023-03-04T00:20:24;102775.13;;;8.07;92.53
50356;BME280;36264;51.296;-0.602;2023-03-04T00:22:49;102774.25;;;8.05;92.57
50356;BME280;36264;51.296;-0.602;2023-03-04T00:25:15;102775.06;;;8.02;93.12
50356;BME280;36264;51.296;-0.602;2023-03-04T00:27:40;102779.44;;;8.06;93.34
50356;BME280;36264;51.296;-0.602;2023-03-04T00:30:06;102769.13;;;8.09;93.12
50356;BME280;36264;51.296;-0.602;2023-03-04T00:32:32;102766.47;;;8.05;93.29
50356;BME280;36264;51.296;-0.602;2023-03-04T00:34:57;102765.63;;;8.04;93.20
50356;BME280;36264;51.296;-0.602;2023-03-04T00:37:23;102769.88;;;8.02;93.01
50356;BME280;36264;51.296;-0.602;2023-03-04T00:39:48;102768.13;;;7.98;92.70
50356;BME280;36264;51.296;-0.602;2023-03-04T00:42:13;102765.53;;;7.96;92.48
50356;BME280;36264;51.296;-0.602;2023-03-04T00:44:39;102767.25;;;7.99;93.19
50356;BME280;36264;51.296;-0.602;2023-03-04T00:47:04;102770.75;;;8.00;92.75
50356;BME280;36264;51.296;-0.602;2023-03-04T00:49:29;102774.22;;;8.02;93.09
50356;BME280;36264;51.296;-0.602;2023-03-04T00:51:55;102771.63;;;8.03;92.95
50356;BME280;36264;51.296;-0.602;2023-03-04T00:54:20;102770.81;;;8.04;92.58
50356;BME280;36264;51.296;-0.602;2023-03-04T00:56:45;102771.59;;;8.00;92.41
50356;BME280;36264;51.296;-0.602;2023-03-04T00:59:11;102776.81;;;8.03;92.41
50356;BME280;36264;51.296;-0.602;2023-03-04T01:01:36;102778.53;;;8.03;92.17
50356;BME280;36264;51.296;-0.602;2023-03-04T01:04:02;102781.91;;;7.97;91.74
50356;BME280;36264;51.296;-0.602;2023-03-04T01:06:27;102781.91;;;7.95;92.57
50356;BME280;36264;51.296;-0.602;2023-03-04T01:08:52;102784.50;;;7.97;92.69
50356;BME280;36264;51.296;-0.602;2023-03-04T01:11:18;102787.94;;;7.96;92.44
50356;BME280;36264;51.296;-0.602;2023-03-04T01:13:43;102781.03;;;7.95;92.72
50356;BME280;36264;51.296;-0.602;2023-03-04T01:16:09;102785.28;;;7.90;92.07
50356;BME280;36264;51.296;-0.602;2023-03-04T01:18:35;102788.81;;;7.95;92.51
50356;BME280;36264;51.296;-0.602;2023-03-04T01:21:01;102787.13;;;8.00;92.80
50356;BME280;36264;51.296;-0.602;2023-03-04T01:23:26;102776.81;;;8.03;92.74
50356;BME280;36264;51.296;-0.602;2023-03-04T01:25:51;102782.00;;;8.03;93.06
50356;BME280;36264;51.296;-0.602;2023-03-04T01:28:17;102787.16;;;8.02;93.33
50356;BME280;36264;51.296;-0.602;2023-03-04T01:30:42;102786.28;;;8.01;93.54
50356;BME280;36264;51.296;-0.602;2023-03-04T01:33:08;102784.56;;;8.03;93.21
50356;BME280;36264;51.296;-0.602;2023-03-04T01:35:33;102782.78;;;7.99;93.22
50356;BME280;36264;51.296;-0.602;2023-03-04T01:37:58;102785.34;;;7.96;93.45
50356;BME280;36264;51.296;-0.602;2023-03-04T01:40:24;102779.34;;;7.98;93.79
50356;BME280;36264;51.296;-0.602;2023-03-04T01:42:49;102779.34;;;7.98;94.04
50356;BME280;36264;51.296;-0.602;2023-03-04T01:45:17;102776.75;;;7.98;93.81
50356;BME280;36264;51.296;-0.602;2023-03-04T01:47:45;102775.03;;;8.01;93.62
50356;BME280;36264;51.296;-0.602;2023-03-04T01:50:19;102774.16;;;7.97;93.54
50356;BME280;36264;51.296;-0.602;2023-03-04T01:52:45;102774.09;;;7.94;93.87
50356;BME280;36264;51.296;-0.602;2023-03-04T01:55:15;102770.66;;;7.93;94.13
50356;BME280;36264;51.296;-0.602;2023-03-04T01:57:41;102762.00;;;7.90;94.36
50356;BME280;36264;51.296;-0.602;2023-03-04T02:00:28;102767.19;;;7.93;94.63
50356;BME280;36264;51.296;-0.602;2023-03-04T02:02:58;102761.22;;;7.97;94.71
50356;BME280;36264;51.296;-0.602;2023-03-04T02:05:24;102758.66;;;7.98;94.68
50356;BME280;36264;51.296;-0.602;2023-03-04T02:07:50;102750.06;;;8.01;94.73
50356;BME280;36264;51.296;-0.602;2023-03-04T02:10:17;102747.50;;;8.03;94.89
50356;BME280;36264;51.296;-0.602;2023-03-04T02:12:43;102750.09;;;8.04;94.91
50356;BME280;36264;51.296;-0.602;2023-03-04T02:15:10;102751.00;;;8.08;95.15
50356;BME280;36264;51.296;-0.602;2023-03-04T02:17:36;102754.47;;;8.10;94.93
50356;BME280;36264;51.296;-0.602;2023-03-04T02:22:37;102748.41;;;8.08;94.77
50356;BME280;36264;51.296;-0.602;2023-03-04T02:25:10;102742.38;;;8.10;95.05
50356;BME280;36264;51.296;-0.602;2023-03-04T02:27:40;102737.19;;;8.07;96.19
50356;BME280;36264;51.296;-0.602;2023-03-04T02:30:06;102729.34;;;8.01;95.55
50356;BME280;36264;51.296;-0.602;2023-03-04T02:32:31;102732.75;;;7.97;95.94
50356;BME280;36264;51.296;-0.602;2023-03-04T02:34:57;102733.59;;;7.96;96.37
50356;BME280;36264;51.296;-0.602;2023-03-04T02:37:22;102731.91;;;7.98;96.73
50356;BME280;36264;51.296;-0.602;2023-03-04T02:39:48;102727.59;;;8.00;96.13
50356;BME280;36264;51.296;-0.602;2023-03-04T02:42:14;102727.66;;;8.03;96.10
50356;BME280;36264;51.296;-0.602;2023-03-04T02:44:42;102725.09;;;8.06;95.97
50356;BME280;36264;51.296;-0.602;2023-03-04T02:47:11;102719.91;;;8.06;95.63
50356;BME280;36264;51.296;-0.602;2023-03-04T02:49:39;102714.72;;;8.05;95.62
50356;BME280;36264;51.296;-0.602;2023-03-04T02:52:08;102719.06;;;8.07;95.78
50356;BME280;36264;51.296;-0.602;2023-03-04T02:54:36;102709.56;;;8.06;95.59
50356;BME280;36264;51.296;-0.602;2023-03-04T02:57:05;102716.47;;;8.06;95.73
50356;BME280;36264;51.296;-0.602;2023-03-04T02:59:31;102712.97;;;8.02;95.46
50356;BME280;36264;51.296;-0.602;2023-03-04T03:01:56;102715.50;;;7.97;95.81
50356;BME280;36264;51.296;-0.602;2023-03-04T03:04:22;102715.44;;;7.93;95.85
50356;BME280;36264;51.296;-0.602;2023-03-04T03:06:48;102713.72;;;7.92;95.84
50356;BME280;36264;51.296;-0.602;2023-03-04T03:09:15;102706.00;;;7.96;95.73
50356;BME280;36264;51.296;-0.602;2023-03-04T03:11:40;102711.22;;;7.98;95.70
50356;BME280;36264;51.296;-0.602;2023-03-04T03:14:06;102717.25;;;8.00;95.90
50356;BME280;36264;51.296;-0.602;2023-03-04T03:16:31;102713.78;;;7.98;95.20
50356;BME280;36264;51.296;-0.602;2023-03-04T03:18:57;102711.19;;;7.96;95.79
50356;BME280;36264;51.296;-0.602;2023-03-04T03:21:22;102711.16;;;7.95;95.90
50356;BME280;36264;51.296;-0.602;2023-03-04T03:23:48;102712.03;;;7.95;95.54
50356;BME280;36264;51.296;-0.602;2023-03-04T03:26:14;102712.91;;;7.99;95.58
50356;BME280;36264;51.296;-0.602;2023-03-04T03:28:40;102712.09;;;8.00;95.95
50356;BME280;36264;51.296;-0.602;2023-03-04T03:31:05;102717.25;;;7.98;95.79
50356;BME280;36264;51.296;-0.602;2023-03-04T03:33:31;102717.25;;;8.00;96.04
50356;BME280;36264;51.296;-0.602;2023-03-04T03:35:56;102722.47;;;8.03;95.98
50356;BME280;36264;51.296;-0.602;2023-03-04T03:38:21;102725.91;;;8.02;96.08
50356;BME280;36264;51.296;-0.602;2023-03-04T03:40:47;102727.56;;;7.97;95.94
50356;BME280;36264;51.296;-0.602;2023-03-04T03:43:12;102725.81;;;7.94;95.96
50356;BME280;36264;51.296;-0.602;2023-03-04T03:45:38;102728.38;;;7.93;95.50
50356;BME280;36264;51.296;-0.602;2023-03-04T03:48:03;102724.88;;;7.88;95.45
50356;BME280;36264;51.296;-0.602;2023-03-04T03:50:29;102717.06;;;7.83;96.18
50356;BME280;36264;51.296;-0.602;2023-03-04T03:52:55;102711.91;;;7.85;96.33
50356;BME280;36264;51.296;-0.602;2023-03-04T03:55:20;102717.09;;;7.88;96.18
50356;BME280;36264;51.296;-0.602;2023-03-04T03:57:46;102716.25;;;7.87;96.92
50356;BME280;36264;51.296;-0.602;2023-03-04T04:00:12;102720.47;;;7.79;96.88
50356;BME280;36264;51.296;-0.602;2023-03-04T04:02:39;102721.31;;;7.79;96.49
50356;BME280;36264;51.296;-0.602;2023-03-04T04:05:05;102711.81;;;7.78;96.62
50356;BME280;36264;51.296;-0.602;2023-03-04T04:07:30;102721.31;;;7.78;96.81
50356;BME280;36264;51.296;-0.602;2023-03-04T04:09:56;102719.53;;;7.74;96.87
50356;BME280;36264;51.296;-0.602;2023-03-04T04:12:22;102723.88;;;7.76;96.96
50356;BME280;36264;51.296;-0.602;2023-03-04T04:14:47;102723.03;;;7.76;96.80
50356;BME280;36264;51.296;-0.602;2023-03-04T04:17:13;102725.63;;;7.77;97.31
50356;BME280;36264;51.296;-0.602;2023-03-04T04:19:39;102715.34;;;7.82;97.20
50356;BME280;36264;51.296;-0.602;2023-03-04T04:22:05;102717.06;;;7.85;97.28
50356;BME280;36264;51.296;-0.602;2023-03-04T04:24:31;102712.84;;;7.90;96.97
50356;BME280;36264;51.296;-0.602;2023-03-04T04:26:57;102712.84;;;7.93;97.39
50356;BME280;36264;51.296;-0.602;2023-03-04T04:29:22;102719.72;;;7.89;97.46
50356;BME280;36264;51.296;-0.602;2023-03-04T04:31:48;102715.44;;;7.90;97.82
50356;BME280;36264;51.296;-0.602;2023-03-04T04:34:13;102722.31;;;7.91;97.73
50356;BME280;36264;51.296;-0.602;2023-03-04T04:36:38;102718.88;;;7.90;98.01
50356;BME280;36264;51.296;-0.602;2023-03-04T04:39:05;102723.19;;;7.91;97.94
50356;BME280;36264;51.296;-0.602;2023-03-04T04:41:36;102718.91;;;7.92;97.80
50356;BME280;36264;51.296;-0.602;2023-03-04T04:44:02;102722.31;;;7.91;98.31
50356;BME280;36264;51.296;-0.602;2023-03-04T04:46:27;102720.56;;;7.87;97.93
50356;BME280;36264;51.296;-0.602;2023-03-04T04:48:54;102729.19;;;7.87;98.05
50356;BME280;36264;51.296;-0.602;2023-03-04T04:51:19;102723.19;;;7.88;98.08
50356;BME280;36264;51.296;-0.602;2023-03-04T04:53:44;102730.97;;;7.90;98.49
50356;BME280;36264;51.296;-0.602;2023-03-04T04:56:15;102724.91;;;7.91;98.26
50356;BME280;36264;51.296;-0.602;2023-03-04T04:58:42;102726.63;;;7.90;98.01
50356;BME280;36264;51.296;-0.602;2023-03-04T05:01:09;102725.78;;;7.93;97.87
50356;BME280;36264;51.296;-0.602;2023-03-04T05:03:35;102735.31;;;7.95;97.85
50356;BME280;36264;51.296;-0.602;2023-03-04T05:06:02;102734.47;;;7.96;97.91
50356;BME280;36264;51.296;-0.602;2023-03-04T05:08:28;102731.88;;;7.95;98.21
50356;BME280;36264;51.296;-0.602;2023-03-04T05:10:53;102731.00;;;7.96;97.92
50356;BME280;36264;51.296;-0.602;2023-03-04T05:13:18;102722.41;;;7.97;98.01
50356;BME280;36264;51.296;-0.602;2023-03-04T05:15:50;102727.56;;;7.97;97.77
50356;BME280;36264;51.296;-0.602;2023-03-04T05:18:16;102724.94;;;7.94;98.02
50356;BME280;36264;51.296;-0.602;2023-03-04T05:20:41;102733.53;;;7.88;97.79
50356;BME280;36264;51.296;-0.602;2023-03-04T05:23:06;102736.91;;;7.84;98.30
50356;BME280;36264;51.296;-0.602;2023-03-04T05:25:32;102736.06;;;7.84;98.21
50356;BME280;36264;51.296;-0.602;2023-03-04T05:27:57;102734.38;;;7.89;98.43
50356;BME280;36264;51.296;-0.602;2023-03-04T05:30:22;102730.91;;;7.85;98.74
50356;BME280;36264;51.296;-0.602;2023-03-04T05:32:48;102732.66;;;7.89;98.74
50356;BME280;36264;51.296;-0.602;2023-03-04T05:35:13;102729.25;;;7.93;98.68
50356;BME280;36264;51.296;-0.602;2023-03-04T05:37:38;102733.56;;;7.94;98.41
50356;BME280;36264;51.296;-0.602;2023-03-04T05:40:04;102734.47;;;7.96;98.17
50356;BME280;36264;51.296;-0.602;2023-03-04T05:42:30;102729.25;;;7.93;98.12
50356;BME280;36264;51.296;-0.602;2023-03-04T05:44:55;102742.19;;;7.92;98.06
50356;BME280;36264;51.296;-0.602;2023-03-04T05:47:20;102737.88;;;7.92;98.19
50356;BME280;36264;51.296;-0.602;2023-03-04T05:49:46;102739.59;;;7.92;98.22
50356;BME280;36264;51.296;-0.602;2023-03-04T05:52:11;102740.34;;;7.85;97.64
50356;BME280;36264;51.296;-0.602;2023-03-04T05:54:37;102739.44;;;7.79;98.24
50356;BME280;36264;51.296;-0.602;2023-03-04T05:57:02;102743.78;;;7.80;97.81
50356;BME280;36264;51.296;-0.602;2023-03-04T05:59:27;102735.13;;;7.80;97.93
50356;BME280;36264;51.296;-0.602;2023-03-04T06:01:53;102742.88;;;7.80;97.95
50356;BME280;36264;51.296;-0.602;2023-03-04T06:04:18;102744.66;;;7.84;98.30
50356;BME280;36264;51.296;-0.602;2023-03-04T06:06:44;102744.50;;;7.72;97.51
50356;BME280;36264;51.296;-0.602;2023-03-04T06:09:13;102746.19;;;7.67;98.05
50356;BME280;36264;51.296;-0.602;2023-03-04T06:11:38;102736.59;;;7.59;97.84
50356;BME280;36264;51.296;-0.602;2023-03-04T06:14:04;102745.25;;;7.61;97.90
50356;BME280;36264;51.296;-0.602;2023-03-04T06:16:30;102738.31;;;7.60;97.74
50356;BME280;36264;51.296;-0.602;2023-03-04T06:18:55;102736.53;;;7.56;97.32
50356;BME280;36264;51.296;-0.602;2023-03-04T06:21:20;102740.03;;;7.58;97.73
50356;BME280;36264;51.296;-0.602;2023-03-04T06:23:46;102743.59;;;7.67;97.83
50356;BME280;36264;51.296;-0.602;2023-03-04T06:26:11;102747.94;;;7.68;97.63
50356;BME280;36264;51.296;-0.602;2023-03-04T06:28:40;102743.59;;;7.67;97.68
50356;BME280;36264;51.296;-0.602;2023-03-04T06:31:06;102740.91;;;7.59;97.52
50356;BME280;36264;51.296;-0.602;2023-03-04T06:33:32;102755.63;;;7.63;97.97
50356;BME280;36264;51.296;-0.602;2023-03-04T06:35:57;102748.69;;;7.62;97.82
50356;BME280;36264;51.296;-0.602;2023-03-04T06:38:23;102753.06;;;7.66;nan
50356;BME280;36264;51.296;-0.602;2023-03-04T06:40:48;102750.50;;;7.66;97.17
50356;BME280;36264;51.296;-0.602;2023-03-04T06:43:13;102753.06;;;7.66;97.25
50356;BME280;36264;51.296;-0.602;2023-03-04T06:45:39;102762.50;;;7.64;96.80
50356;BME280;36264;51.296;-0.602;2023-03-04T06:48:04;102760.84;;;7.68;97.49
50356;BME280;36264;51.296;-0.602;2023-03-04T06:50:30;102754.78;;;7.66;97.06
50356;BME280;36264;51.296;-0.602;2023-03-04T06:52:56;102756.50;;;7.65;97.24
50356;BME280;36264;51.296;-0.602;2023-03-04T06:55:21;102766.06;;;7.72;97.04
50356;BME280;36264;51.296;-0.602;2023-03-04T06:57:47;102765.31;;;7.79;97.09
50356;BME280;36264;51.296;-0.602;2023-03-04T07:00:12;102765.31;;;7.81;96.84
50356;BME280;36264;51.296;-0.602;2023-03-04T07:02:38;102768.78;;;7.83;96.96
50356;BME280;36264;51.296;-0.602;2023-03-04T07:05:04;102765.38;;;7.86;96.80
50356;BME280;36264;51.296;-0.602;2023-03-04T07:07:29;102768.00;;;7.87;96.88
50356;BME280;36264;51.296;-0.602;2023-03-04T07:09:55;102765.38;;;7.84;96.79
50356;BME280;36264;51.296;-0.602;2023-03-04T07:12:20;102774.66;;;7.70;95.68
50356;BME280;36264;51.296;-0.602;2023-03-04T07:14:45;102778.00;;;7.62;96.39
50356;BME280;36264;51.296;-0.602;2023-03-04T07:17:11;102784.94;;;7.65;97.36
50356;BME280;36264;51.296;-0.602;2023-03-04T07:19:36;102788.41;;;7.66;97.19
50356;BME280;36264;51.296;-0.602;2023-03-04T07:22:02;102791.91;;;7.68;97.09
50356;BME280;36264;51.296;-0.602;2023-03-04T07:24:28;102795.41;;;7.73;97.08
50356;BME280;36264;51.296;-0.602;2023-03-04T07:26:53;102791.03;;;7.70;97.69
50356;BME280;36264;51.296;-0.602;2023-03-04T07:29:18;102797.13;;;7.74;97.92
50356;BME280;36264;51.296;-0.602;2023-03-04T07:31:44;102802.28;;;7.74;97.90
50356;BME280;36264;51.296;-0.602;2023-03-04T07:34:11;102798.88;;;7.75;98.06
50356;BME280;36264;51.296;-0.602;2023-03-04T07:36:38;102798.03;;;7.76;98.36
50356;BME280;36264;51.296;-0.602;2023-03-04T07:39:04;102805.84;;;7.79;98.71
50356;BME280;36264;51.296;-0.602;2023-03-04T07:41:30;102804.19;;;7.84;98.59
50356;BME280;36264;51.296;-0.602;2023-03-04T07:43:57;102802.47;;;7.86;99.35
50356;BME280;36264;51.296;-0.602;2023-03-04T07:46:23;102808.56;;;7.90;99.48
50356;BME280;36264;51.296;-0.602;2023-03-04T07:48:49;102800.81;;;7.91;99.10
50356;BME280;36264;51.296;-0.602;2023-03-04T07:51:19;102804.38;;;7.98;99.36
50356;BME280;36264;51.296;-0.602;2023-03-04T07:53:47;102813.00;;;7.98;99.29
50356;BME280;36264;51.296;-0.602;2023-03-04T07:56:18;102807.84;;;8.02;99.22
50356;BME280;36264;51.296;-0.602;2023-03-04T07:58:44;102814.69;;;7.96;99.34
50356;BME280;36264;51.296;-0.602;2023-03-04T08:01:12;102813.00;;;8.00;99.55
50356;BME280;36264;51.296;-0.602;2023-03-04T08:03:38;102813.03;;;8.02;99.47
50356;BME280;36264;51.296;-0.602;2023-03-04T08:06:05;102807.03;;;8.04;99.30
50356;BME280;36264;51.296;-0.602;2023-03-04T08:08:31;102811.31;;;8.04;99.49
50356;BME280;36264;51.296;-0.602;2023-03-04T08:10:56;102822.56;;;8.04;99.74
50356;BME280;36264;51.296;-0.602;2023-03-04T08:13:21;102819.03;;;8.01;99.03
50356;BME280;36264;51.296;-0.602;2023-03-04T08:15:47;102814.75;;;8.00;99.25
50356;BME280;36264;51.296;-0.602;2023-03-04T08:18:12;102813.06;;;8.05;99.53
50356;BME280;36264;51.296;-0.602;2023-03-04T08:20:40;102817.41;;;8.06;99.15
50356;BME280;36264;51.296;-0.602;2023-03-04T08:23:07;102816.53;;;8.07;99.52
50356;BME280;36264;51.296;-0.602;2023-03-04T08:25:32;102811.47;;;8.14;99.62
50356;BME280;36264;51.296;-0.602;2023-03-04T08:27:58;102815.78;;;8.15;98.85
50356;BME280;36264;51.296;-0.602;2023-03-04T08:30:23;102814.91;;;8.16;99.42
50356;BME280;36264;51.296;-0.602;2023-03-04T08:32:48;102809.88;;;8.26;99.63
50356;BME280;36264;51.296;-0.602;2023-03-04T08:35:14;102811.66;;;8.30;99.50
50356;BME280;36264;51.296;-0.602;2023-03-04T08:37:39;102815.13;;;8.33;99.17
50356;BME280;36264;51.296;-0.602;2023-03-04T08:40:05;102822.03;;;8.31;98.25
50356;BME280;36264;51.296;-0.602;2023-03-04T08:42:30;102821.06;;;8.23;98.13
50356;BME280;36264;51.296;-0.602;2023-03-04T08:44:56;102816.78;;;8.25;98.80
50356;BME280;36264;51.296;-0.602;2023-03-04T08:47:21;102809.88;;;8.26;99.09
50356;BME280;36264;51.296;-0.602;2023-03-04T08:49:46;102812.53;;;8.32;99.39
50356;BME280;36264;51.296;-0.602;2023-03-04T08:52:12;102813.47;;;8.40;99.62
50356;BME280;36264;51.296;-0.602;2023-03-04T08:54:37;102808.28;;;8.40;99.20
50356;BME280;36264;51.296;-0.602;2023-03-04T08:57:03;102813.44;;;8.37;99.13
50356;BME280;36264;51.296;-0.602;2023-03-04T08:59:28;102810.91;;;8.42;99.58
50356;BME280;36264;51.296;-0.602;2023-03-04T09:01:53;102809.22;;;8.42;100.00
50356;BME280;36264;51.296;-0.602;2023-03-04T09:04:19;102816.13;;;8.43;99.09
50356;BME280;36264;51.296;-0.602;2023-03-04T09:06:44;102810.13;;;8.44;98.98
50356;BME280;36264;51.296;-0.602;2023-03-04T09:09:09;102804.06;;;8.47;98.71
50356;BME280;36264;51.296;-0.602;2023-03-04T09:11:35;102805.94;;;8.57;98.72
50356;BME280;36264;51.296;-0.602;2023-03-04T09:14:00;102812.97;;;8.70;98.81
50356;BME280;36264;51.296;-0.602;2023-03-04T09:16:25;102810.34;;;8.69;97.77
50356;BME280;36264;51.296;-0.602;2023-03-04T09:18:51;102813.00;;;8.74;98.20
50356;BME280;36264;51.296;-0.602;2023-03-04T09:21:16;102803.56;;;8.77;98.77
50356;BME280;36264;51.296;-0.602;2023-03-04T09:23:42;102809.66;;;8.85;98.13
50356;BME280;36264;51.296;-0.602;2023-03-04T09:26:22;102808.78;;;8.86;96.45
50356;BME280;36264;51.296;-0.602;2023-03-04T09:28:50;102813.97;;;8.86;96.87
50356;BME280;36264;51.296;-0.602;2023-03-04T09:31:15;102810.59;;;8.92;97.51
50356;BME280;36264;51.296;-0.602;2023-03-04T09:33:41;102818.38;;;8.94;96.74
50356;BME280;36264;51.296;-0.602;2023-03-04T09:36:09;102821.84;;;8.97;96.51
50356;BME280;36264;51.296;-0.602;2023-03-04T09:38:34;102818.44;;;9.00;95.80
50356;BME280;36264;51.296;-0.602;2023-03-04T09:41:05;102812.41;;;9.05;97.27
50356;BME280;36264;51.296;-0.602;2023-03-04T09:43:32;102819.31;;;9.02;95.79
50356;BME280;36264;51.296;-0.602;2023-03-04T09:46:00;102817.56;;;8.99;96.38
50356;BME280;36264;51.296;-0.602;2023-03-04T09:48:29;102817.53;;;8.95;96.79
50356;BME280;36264;51.296;-0.602;2023-03-04T09:51:10;102820.16;;;8.98;98.00
50356;BME280;36264;51.296;-0.602;2023-03-04T09:54:07;102822.75;;;9.04;98.02
50356;BME280;36264;51.296;-0.602;2023-03-04T09:56:35;102823.69;;;9.07;98.10
50356;BME280;36264;51.296;-0.602;2023-03-04T10:01:55;102810.75;;;9.12;97.85
50356;BME280;36264;51.296;-0.602;2023-03-04T10:04:41;102803.84;;;9.14;94.39
50356;BME280;36264;51.296;-0.602;2023-03-04T10:07:17;102802.13;;;9.16;96.35
50356;BME280;36264;51.296;-0.602;2023-03-04T10:12:56;102803.91;;;9.19;94.55
50356;BME280;36264;51.296;-0.602;2023-03-04T10:15:33;102798.72;;;9.19;94.24
50356;BME280;36264;51.296;-0.602;2023-03-04T10:18:15;102800.44;;;9.17;94.08
50356;BME280;36264;51.296;-0.602;2023-03-04T10:20:56;102799.53;;;9.16;94.37
50356;BME280;36264;51.296;-0.602;2023-03-04T10:23:25;102794.34;;;9.16;91.38
50356;BME280;36264;51.296;-0.602;2023-03-04T10:25:51;102794.38;;;9.18;94.64
50356;BME280;36264;51.296;-0.602;2023-03-04T10:28:26;102792.72;;;9.29;94.96
50356;BME280;36264;51.296;-0.602;2023-03-04T10:31:33;102798.78;;;9.30;90.87
50356;BME280;36264;51.296;-0.602;2023-03-04T10:33:59;102801.38;;;9.28;93.75
50356;BME280;36264;51.296;-0.602;2023-03-04T10:41:24;102791.75;;;9.15;94.27
50356;BME280;36264;51.296;-0.602;2023-03-04T10:46:39;102790.09;;;9.20;94.61
50356;BME280;36264;51.296;-0.602;2023-03-04T10:49:05;102784.91;;;9.20;93.12
50356;BME280;36264;51.296;-0.602;2023-03-04T10:51:31;102785.78;;;9.22;93.06
50356;BME280;36264;51.296;-0.602;2023-03-04T10:53:57;102784.91;;;9.24;92.75
50356;BME280;36264;51.296;-0.602;2023-03-04T10:56:39;102784.13;;;9.33;92.29
50356;BME280;36264;51.296;-0.602;2023-03-04T11:02:35;102770.44;;;9.57;89.87
50356;BME280;36264;51.296;-0.602;2023-03-04T11:07:31;102761.75;;;9.54;89.97
50356;BME280;36264;51.296;-0.602;2023-03-04T11:12:34;102769.53;;;9.51;91.13
50356;BME280;36264;51.296;-0.602;2023-03-04T11:15:00;102776.47;;;9.50;91.13
50356;BME280;36264;51.296;-0.602;2023-03-04T11:17:28;102774.72;;;9.51;91.09
50356;BME280;36264;51.296;-0.602;2023-03-04T11:20:19;102765.19;;;9.50;91.21
50356;BME280;36264;51.296;-0.602;2023-03-04T11:22:50;102763.50;;;9.55;91.85
50356;BME280;36264;51.296;-0.602;2023-03-04T11:25:30;102765.25;;;9.60;90.16
50356;BME280;36264;51.296;-0.602;2023-03-04T11:28:00;102761.72;;;9.48;90.44
50356;BME280;36264;51.296;-0.602;2023-03-04T11:30:37;102751.38;;;9.51;91.57
50356;BME280;36264;51.296;-0.602;2023-03-04T11:39:04;102755.75;;;9.58;91.79
50356;BME280;36264;51.296;-0.602;2023-03-04T11:41:53;102755.75;;;9.63;91.29
50356;BME280;36264;51.296;-0.602;2023-03-04T11:44:22;102760.09;;;9.64;90.54
50356;BME280;36264;51.296;-0.602;2023-03-04T11:50:09;102755.72;;;9.61;90.57
50356;BME280;36264;51.296;-0.602;2023-03-04T12:00:42;102747.00;;;9.43;85.52
50356;BME280;36264;51.296;-0.602;2023-03-04T12:06:15;102742.75;;;9.53;89.52
50356;BME280;36264;51.296;-0.602;2023-03-04T12:19:33;102719.41;;;9.56;87.94
50356;BME280;36264;51.296;-0.602;2023-03-04T12:40:37;102685.88;;;10.27;87.80
50356;BME280;36264;51.296;-0.602;2023-03-04T12:44:23;102682.41;;;10.28;85.86
50356;BME280;36264;51.296;-0.602;2023-03-04T12:46:30;102679.78;;;10.10;86.36
50356;BME280;36264;51.296;-0.602;2023-03-04T12:49:24;102684.13;;;10.08;86.19
50356;BME280;36264;51.296;-0.602;2023-03-04T12:52:16;102671.97;;;10.01;86.03
50356;BME280;36264;51.296;-0.602;2023-03-04T12:54:49;102676.28;;;9.91;86.71
50356;BME280;36264;51.296;-0.602;2023-03-04T12:57:23;102667.59;;;9.76;84.18
50356;BME280;36264;51.296;-0.602;2023-03-04T12:59:55;102658.03;;;9.61;86.63
50356;BME280;36264;51.296;-0.602;2023-03-04T13:07:58;102652.91;;;9.75;88.05
50356;BME280;36264;51.296;-0.602;2023-03-04T13:10:26;102654.56;;;9.67;86.82
50356;BME280;36264;51.296;-0.602;2023-03-04T13:12:54;102645.09;;;9.69;87.44
50356;BME280;36264;51.296;-0.602;2023-03-04T13:23:38;102649.38;;;9.69;86.54
50356;BME280;36264;51.296;-0.602;2023-03-04T13:26:15;102640.78;;;9.73;85.79
50356;BME280;36264;51.296;-0.602;2023-03-04T13:28:42;102639.03;;;9.72;86.25
50356;BME280;36264;51.296;-0.602;2023-03-04T13:31:12;102632.13;;;9.74;86.74
50356;BME280;36264;51.296;-0.602;2023-03-04T13:33:47;102632.13;;;9.69;85.98
50356;BME280;36264;51.296;-0.602;2023-03-04T13:36:34;102633.81;;;9.66;84.58
50356;BME280;36264;51.296;-0.602;2023-03-04T13:41:49;102626.03;;;9.67;85.94
50356;BME280;36264;51.296;-0.602;2023-03-04T13:44:34;102617.38;;;9.57;84.16
50356;BME280;36264;51.296;-0.602;2023-03-04T13:47:08;102627.75;;;9.57;86.39
50356;BME280;36264;51.296;-0.602;2023-03-04T13:49:38;102617.34;;;9.53;86.07
50356;BME280;36264;51.296;-0.602;2023-03-04T13:52:34;102614.72;;;9.48;82.71
50356;BME280;36264;51.296;-0.602;2023-03-04T13:55:33;102619.06;;;9.51;85.73
50356;BME280;36264;51.296;-0.602;2023-03-04T13:58:00;102613.03;;;9.52;86.65
50356;BME280;36264;51.296;-0.602;2023-03-04T14:00:27;102614.75;;;9.54;86.23
50356;BME280;36264;51.296;-0.602;2023-03-04T14:02:53;102620.84;;;9.55;86.05
50356;BME280;36264;51.296;-0.602;2023-03-04T14:05:19;102613.03;;;9.50;85.38
50356;BME280;36264;51.296;-0.602;2023-03-04T14:07:45;102617.31;;;9.47;85.71
50356;BME280;36264;51.296;-0.602;2023-03-04T14:12:39;102615.56;;;9.33;85.16
50356;BME280;36264;51.296;-0.602;2023-03-04T14:17:48;102608.66;;;9.41;86.22
50356;BME280;36264;51.296;-0.602;2023-03-04T14:20:24;102603.53;;;9.52;85.89
50356;BME280;36264;51.296;-0.602;2023-03-04T14:22:50;102605.25;;;9.55;85.93
50356;BME280;36264;51.296;-0.602;2023-03-04T14:27:45;102600.94;;;9.57;85.02
50356;BME280;36264;51.296;-0.602;2023-03-04T14:30:21;102596.59;;;9.53;85.04
50356;BME280;36264;51.296;-0.602;2023-03-04T14:32:47;102601.75;;;9.48;84.07